Time;durP1;ratioP1;P1;durP2;ratioP2;P2;SDS_P1;SDS_P2;PMS_P1;PMS_P2;Temp;Humidity;BMP_temperature;BMP_pressure;BME280_temperature;BME280_humidity;BME280_pressure;Samples;Min_cycle;Max_cycle;Signal;HPM_P1;HPM_P2
2022/05/29 00:01:44;;;;;;;11.85;2.25;;;;;;;10.12;70.36;100317.95;1786064;78;98899;-69
2022/05/29 00:04:12;;;;;;;12.03;2.47;;;;;;;10.11;70.31;100319.36;1792162;78;25835;-69
2022/05/29 00:06:42;;;;;;;6.65;1.92;;;;;;;10.09;70.40;100314.95;1784019;78;99068;-69
2022/05/29 00:09:15;;;;;;;6.45;2.33;;;;;;;10.09;70.39;100316.76;1786526;78;25760;-70
2022/05/29 00:11:41;;;;;;;8.13;1.98;;;;;;;10.06;70.58;100315.09;1786482;78;27407;-69
2022/05/29 00:14:07;;;;;;;9.30;2.33;;;;;;;10.05;70.76;100309.34;1787067;78;98726;-70
2022/05/29 00:16:33;;;;;;;11.15;2.22;;;;;;;10.04;70.84;100311.61;1786871;78;25713;-70
2022/05/29 00:18:59;;;;;;;5.95;2.10;;;;;;;10.04;70.99;100310.75;1785670;78;99004;-69
2022/05/29 00:21:32;;;;;;;8.50;2.00;;;;;;;10.04;71.02;100307.59;1789720;78;25736;-70
2022/05/29 00:23:57;;;;;;;8.05;1.92;;;;;;;10.05;71.11;100306.66;1784561;78;28227;-70
2022/05/29 00:26:23;;;;;;;8.85;2.72;;;;;;;10.06;71.10;100303.04;1777836;78;98515;-70
2022/05/29 00:28:52;;;;;;;8.45;2.22;;;;;;;10.06;71.09;100301.70;1789746;78;25348;-70
2022/05/29 00:31:18;;;;;;;13.20;2.33;;;;;;;10.07;71.09;100302.09;1781746;78;98809;-70
2022/05/29 00:33:44;;;;;;;15.20;2.55;;;;;;;10.06;71.07;100299.49;1789422;78;25758;-70
2022/05/29 00:36:13;;;;;;;10.38;2.25;;;;;;;10.05;71.04;100302.64;1782556;78;99125;-70
2022/05/29 00:38:43;;;;;;;10.82;2.00;;;;;;;10.04;71.16;100308.06;1782557;78;25917;-69
2022/05/29 00:41:24;;;;;;;9.73;1.90;;;;;;;10.02;71.17;100307.27;1784490;78;25771;-70
2022/05/29 00:44:26;;;;;;;10.68;1.82;;;;;;;9.95;71.11;100297.31;1782935;78;98800;-70
2022/05/29 00:47:18;;;;;;;7.00;2.00;;;;;;;9.98;71.22;100294.50;1788263;78;25695;-70
2022/05/29 00:49:47;;;;;;;11.78;1.80;;;;;;;9.95;71.14;100301.33;1785756;78;98539;-69
2022/05/29 00:52:23;;;;;;;12.55;2.60;;;;;;;9.92;71.17;100304.62;1793540;78;25726;-70
2022/05/29 00:54:56;;;;;;;19.07;3.52;;;;;;;9.91;71.25;100293.04;1786177;78;99536;-70
2022/05/29 00:57:37;;;;;;;9.80;2.15;;;;;;;9.90;71.22;100294.45;1781896;78;27902;-69
2022/05/29 01:00:15;;;;;;;9.70;2.50;;;;;;;9.87;71.15;100287.43;1771480;78;25922;-70
2022/05/29 01:02:44;;;;;;;8.53;2.35;;;;;;;9.87;71.23;100286.56;1788663;78;98357;-71
2022/05/29 01:05:13;;;;;;;12.63;2.22;;;;;;;9.86;71.25;100290.17;1786120;78;25795;-69
2022/05/29 01:07:51;;;;;;;7.85;1.67;;;;;;;9.84;71.31;100287.57;1785469;78;98736;-69
2022/05/29 01:10:18;;;;;;;8.13;2.05;;;;;;;9.85;71.31;100289.31;1786416;78;25775;-70
2022/05/29 01:13:00;;;;;;;11.55;2.35;;;;;;;9.84;71.29;100298.28;1782136;78;98606;-70
2022/05/29 01:15:44;;;;;;;10.70;1.90;;;;;;;9.83;71.37;100291.19;1786134;78;27500;-69
2022/05/29 01:18:36;;;;;;;10.65;2.95;;;;;;;9.84;71.32;100291.59;1787163;78;25765;-60
2022/05/29 01:21:22;;;;;;;6.17;1.67;;;;;;;9.84;71.41;100288.04;1790418;78;98565;-61
2022/05/29 01:24:46;;;;;;;7.60;1.92;;;;;;;9.85;71.39;100298.67;1787840;78;25752;-60
2022/05/29 01:27:44;;;;;;;9.95;2.15;;;;;;;9.85;71.38;100298.67;1784232;78;98423;-61
2022/05/29 01:30:16;;;;;;;5.15;2.02;;;;;;;9.86;71.45;100299.08;1782874;78;27798;-61
2022/05/29 01:33:26;;;;;;;6.85;1.45;;;;;;;9.86;71.45;100300.41;1784926;78;98507;-62
2022/05/29 01:36:14;;;;;;;6.45;2.20;;;;;;;9.87;71.35;100289.23;1782605;78;25543;-60
2022/05/29 01:38:49;;;;;;;8.58;1.75;;;;;;;9.86;71.33;100284.35;1788886;78;98602;-63
2022/05/29 01:41:33;;;;;;;10.32;2.27;;;;;;;9.88;71.25;100292.31;1786972;78;25776;-62
2022/05/29 01:44:14;;;;;;;8.30;1.80;;;;;;;9.88;71.20;100286.48;1782748;78;98844;-60
2022/05/29 01:46:43;;;;;;;8.55;2.72;;;;;;;9.88;71.23;100289.16;1758647;80;25789;-60
2022/05/29 01:49:30;;;;;;;11.28;1.87;;;;;;;9.87;71.13;100287.43;1720692;82;98906;-60
2022/05/29 01:52:09;;;;;;;8.38;1.80;;;;;;;9.88;71.14;100295.86;1754728;80;27860;-61
2022/05/29 01:54:44;;;;;;;10.13;1.77;;;;;;;9.85;71.11;100287.97;1730193;81;25793;-60
2022/05/29 01:57:36;;;;;;;17.20;2.22;;;;;;;9.84;71.07;100283.55;1752340;80;98505;-62
2022/05/29 02:00:18;;;;;;;9.98;2.60;;;;;;;9.82;71.01;100286.77;1757863;80;25911;-64
2022/05/29 02:03:18;;;;;;;6.47;2.05;;;;;;;9.80;71.03;100286.44;1753483;80;98532;-60
2022/05/29 02:05:52;;;;;;;9.47;2.13;;;;;;;9.75;70.99;100288.86;1726907;81;27831;-60
2022/05/29 02:08:36;;;;;;;6.08;1.95;;;;;;;9.73;71.01;100283.17;1757317;80;98466;-59
2022/05/29 02:11:24;;;;;;;14.43;2.30;;;;;;;9.72;70.98;100282.78;1759277;80;28344;-61
2022/05/29 02:14:12;;;;;;;8.13;1.65;;;;;;;9.69;71.04;100292.28;1755820;80;98806;-60
2022/05/29 02:16:52;;;;;;;12.30;2.67;;;;;;;9.66;71.05;100289.75;1736338;80;25723;-61
2022/05/29 02:19:38;;;;;;;15.98;2.15;;;;;;;9.64;71.13;100291.16;1735564;80;98854;-61
2022/05/29 02:22:09;;;;;;;10.35;1.75;;;;;;;9.62;71.01;100285.47;1751033;80;25753;-63
2022/05/29 02:24:41;;;;;;;8.78;1.72;;;;;;;9.60;71.10;100289.55;1739695;81;46553;-60
2022/05/29 02:27:13;;;;;;;12.68;1.90;;;;;;;9.57;71.06;100284.81;1741211;79;97568;-60
2022/05/29 02:29:42;;;;;;;9.78;1.90;;;;;;;9.55;71.11;100286.69;1742798;80;26398;-60
2022/05/29 02:32:36;;;;;;;8.08;2.08;;;;;;;9.53;71.12;100293.91;1789912;78;98430;-60
2022/05/29 02:35:08;;;;;;;7.33;2.22;;;;;;;9.50;71.14;100288.23;1785243;79;26654;-61
2022/05/29 02:37:48;;;;;;;6.67;2.10;;;;;;;9.49;71.23;100286.95;1784022;78;98711;-60
2022/05/29 02:40:51;;;;;;;7.10;1.85;;;;;;;9.46;71.22;100292.45;1777023;78;25800;-60
2022/05/29 02:43:32;;;;;;;8.75;2.17;;;;;;;9.46;71.25;100291.11;1761388;78;99496;-60
2022/05/29 02:46:33;;;;;;;10.45;2.12;;;;;;;9.43;71.38;100289.44;1759734;79;26717;-60
2022/05/29 02:49:16;;;;;;;8.35;2.12;;;;;;;9.39;71.43;100287.36;1770861;79;98972;-61
2022/05/29 02:51:54;;;;;;;13.80;2.40;;;;;;;9.37;71.49;100285.70;1773939;79;27519;-62
2022/05/29 02:54:30;;;;;;;8.70;1.90;;;;;;;9.36;71.48;100287.97;1766103;80;26381;-60
2022/05/29 02:57:01;;;;;;;10.78;2.12;;;;;;;9.35;71.58;100285.77;1767311;78;98595;-61
2022/05/29 02:59:36;;;;;;;8.05;1.90;;;;;;;9.35;71.55;100287.56;1763500;79;26220;-61
2022/05/29 03:02:22;;;;;;;10.58;1.90;;;;;;;9.37;71.52;100286.56;1770215;79;98497;-60
2022/05/29 03:04:58;;;;;;;9.68;2.08;;;;;;;9.34;71.51;100288.03;1761124;80;27403;-60
2022/05/29 03:08:03;;;;;;;7.08;3.05;;;;;;;9.32;71.52;100293.92;1770978;79;98655;-60
2022/05/29 03:10:34;;;;;;;8.88;1.90;;;;;;;9.29;71.52;100295.39;1768120;79;25754;-60
2022/05/29 03:13:20;;;;;;;9.93;1.92;;;;;;;9.24;71.70;100297.39;1732321;81;98666;-60
2022/05/29 03:16:04;;;;;;;10.63;1.90;;;;;;;9.21;71.78;100301.54;1763609;80;25753;-60
2022/05/29 03:19:07;;;;;;;11.00;2.00;;;;;;;9.20;71.82;100301.14;1753656;79;27488;-60
2022/05/29 03:22:05;;;;;;;14.03;2.27;;;;;;;9.18;71.77;100297.66;1769275;79;99207;-61
2022/05/29 03:25:01;;;;;;;10.85;2.45;;;;;;;9.15;71.77;100299.59;1764193;79;25844;-61
2022/05/29 03:27:47;;;;;;;12.13;1.72;;;;;;;9.12;71.74;100293.91;1763901;79;98578;-61
2022/05/29 03:30:22;;;;;;;10.25;1.87;;;;;;;9.10;71.77;100304.67;1767982;79;25721;-61
2022/05/29 03:32:53;;;;;;;12.33;2.05;;;;;;;9.07;71.75;100312.83;1755260;80;98618;-60
2022/05/29 03:35:32;;;;;;;14.95;1.98;;;;;;;9.01;71.75;100300.19;1767658;79;27692;-61
2022/05/29 03:38:03;;;;;;;;;;;;;;;9.01;71.74;100313.09;1772837;79;98696;-61
2022/05/29 03:40:36;;;;;;;7.90;1.70;;;;;;;8.96;71.84;100312.88;1761398;79;26489;-60
2022/05/29 03:43:02;;;;;;;10.58;1.75;;;;;;;8.92;71.78;100312.60;1756546;79;25967;-62
2022/05/29 03:45:28;;;;;;;3.75;1.72;;;;;;;8.88;71.72;100319.01;1752308;79;98589;-60
2022/05/29 03:47:55;;;;;;;10.68;2.35;;;;;;;8.83;71.82;100321.00;1753830;79;25801;-60
2022/05/29 03:50:24;;;;;;;12.82;2.50;;;;;;;8.78;71.83;100321.19;1752998;79;98814;-62
2022/05/29 03:52:51;;;;;;;7.47;2.08;;;;;;;8.74;71.81;100324.45;1732977;81;25750;-61
2022/05/29 03:55:21;;;;;;;6.90;2.05;;;;;;;8.69;71.85;100320.23;1752897;79;98806;-60
2022/05/29 03:57:54;;;;;;;8.75;2.55;;;;;;;8.66;71.90;100317.22;1758011;79;29549;-60
2022/05/29 04:00:23;;;;;;;10.38;2.35;;;;;;;8.64;71.91;100325.77;1751944;79;25726;-62
2022/05/29 04:02:50;;;;;;;10.75;2.60;;;;;;;8.60;72.02;100326.81;1754788;79;98829;-62
2022/05/29 04:05:22;;;;;;;8.28;2.17;;;;;;;8.61;72.06;100333.03;1754548;79;25776;-62
2022/05/29 04:13:24;;;;;;;14.87;2.83;;;;;;;8.64;72.12;100334.23;1749167;79;98702;-62
2022/05/29 04:15:52;;;;;;;11.30;2.87;;;;;;;8.65;72.16;100332.84;1758486;79;25810;-60
2022/05/29 04:18:21;;;;;;;12.88;2.95;;;;;;;8.68;72.19;100336.73;1754790;79;26520;-60
2022/05/29 04:21:06;;;;;;;;;;;;;;;;;;;;;
2022/05/29 04:23:20;;;;;;;6.70;2.20;;;;;;;8.77;72.28;100327.47;1749427;79;27496;-63
2022/05/29 04:25:46;;;;;;;10.70;2.65;;;;;;;8.81;72.25;100326.88;1745914;79;99077;-61
2022/05/29 04:28:15;;;;;;;11.28;2.27;;;;;;;8.85;72.32;100329.83;1754951;79;25809;-61
2022/05/29 04:30:42;;;;;;;7.25;1.90;;;;;;;8.85;72.35;100328.02;1751619;79;25795;-61
2022/05/29 04:33:10;;;;;;;15.93;3.05;;;;;;;8.91;72.35;100322.89;1750867;79;98703;-62
2022/05/29 04:35:42;;;;;;;5.25;1.62;;;;;;;8.93;72.42;100321.02;1749941;79;27486;-61
2022/05/29 04:38:10;;;;;;;8.25;2.17;;;;;;;8.94;72.42;100327.64;1749211;79;98522;-61
2022/05/29 04:40:39;;;;;;;9.20;2.05;;;;;;;8.98;72.48;100329.25;1757229;79;26154;-61
2022/05/29 04:43:07;;;;;;;13.40;2.62;;;;;;;9.01;72.53;100322.91;1754390;79;27912;-61
2022/05/29 04:45:37;;;;;;;10.43;1.92;;;;;;;9.07;72.53;100320.84;1750801;79;98704;-61
2022/05/29 04:48:07;;;;;;;13.95;2.52;;;;;;;9.12;72.49;100324.66;1759817;79;28248;-60
2022/05/29 04:50:35;;;;;;;7.37;2.33;;;;;;;9.18;72.53;100320.39;1744806;79;98701;-61
2022/05/29 04:53:01;;;;;;;12.73;2.37;;;;;;;9.26;72.53;100328.08;1748572;79;25788;-60
2022/05/29 04:55:27;;;;;;;6.65;2.42;;;;;;;9.31;72.50;100323.41;1749070;79;98842;-60
2022/05/29 04:57:55;;;;;;;8.13;2.33;;;;;;;9.37;72.62;100323.14;1750047;79;25849;-60
2022/05/29 05:00:25;;;;;;;12.30;2.10;;;;;;;9.41;72.52;100322.94;1754109;79;27462;-60
2022/05/29 05:02:51;;;;;;;10.05;2.25;;;;;;;9.47;72.47;100320.94;1750951;79;98698;-60
2022/05/29 05:05:17;;;;;;;4.83;2.10;;;;;;;9.44;72.46;100306.75;1755734;79;25887;-60
2022/05/29 05:07:43;;;;;;;8.25;2.30;;;;;;;9.51;72.47;100315.85;1751257;79;98532;-60
2022/05/29 05:10:15;;;;;;;8.73;2.40;;;;;;;9.53;72.47;100313.51;1756512;79;25771;-59
2022/05/29 05:12:45;;;;;;;15.63;2.42;;;;;;;9.58;72.50;100311.50;1747666;80;27466;-62
2022/05/29 05:15:15;;;;;;;4.70;1.70;;;;;;;9.65;72.53;100316.11;1748351;79;98719;-62
2022/05/29 05:17:46;;;;;;;13.65;2.02;;;;;;;9.69;72.47;100313.22;1751991;79;26480;-60
2022/05/29 05:20:13;;;;;;;9.83;2.20;;;;;;;9.72;72.45;100316.23;1752328;79;98615;-61
2022/05/29 05:22:39;;;;;;;8.88;2.30;;;;;;;9.76;72.43;100314.69;1750287;79;25983;-60
2022/05/29 05:25:10;;;;;;;11.80;2.37;;;;;;;9.83;72.38;100317.95;1729916;80;27493;-60
2022/05/29 05:27:36;;;;;;;11.50;2.27;;;;;;;9.87;72.40;100318.22;1752131;79;98571;-60
2022/05/29 05:30:06;;;;;;;9.35;2.30;;;;;;;9.93;72.28;100315.73;1757055;79;26502;-60
2022/05/29 05:32:33;;;;;;;15.38;3.05;;;;;;;9.96;72.25;100315.59;1737623;80;98788;-61
2022/05/29 05:35:06;;;;;;;9.23;3.00;;;;;;;10.01;72.23;100314.91;1756370;79;25924;-61
2022/05/29 05:37:35;;;;;;;8.50;2.05;;;;;;;10.08;72.17;100315.02;1754901;79;99030;-60
2022/05/29 05:40:11;;;;;;;11.88;2.33;;;;;;;10.08;72.03;100311.00;1754866;79;25738;-61
2022/05/29 05:42:39;;;;;;;8.80;2.37;;;;;;;10.17;72.04;100313.72;1765541;79;25607;-61
2022/05/29 05:45:08;;;;;;;9.48;2.20;;;;;;;10.23;71.97;100318.35;1764484;79;98799;-61
2022/05/29 05:47:35;;;;;;;12.18;1.95;;;;;;;10.26;71.87;100312.85;1699149;81;25796;-61
2022/05/29 05:50:04;;;;;;;7.75;2.37;;;;;;;10.30;71.85;100321.14;1756249;79;99095;-61
2022/05/29 05:52:32;;;;;;;7.95;2.00;;;;;;;10.37;71.80;100323.05;1763137;80;25819;-63
2022/05/29 05:54:58;;;;;;;14.75;2.42;;;;;;;10.45;71.79;100326.20;1763547;79;26100;-60
2022/05/29 05:57:26;;;;;;;6.00;1.80;;;;;;;10.55;71.74;100319.47;1762389;79;99202;-61
2022/05/29 05:59:55;;;;;;;7.25;1.65;;;;;;;10.65;71.61;100317.20;1761474;79;25903;-63
2022/05/29 06:02:23;;;;;;;5.17;1.85;;;;;;;10.74;71.56;100318.97;1764144;79;98697;-61
2022/05/29 06:04:49;;;;;;;9.60;1.92;;;;;;;10.83;71.45;100318.11;1764600;79;26529;-61
2022/05/29 06:07:15;;;;;;;6.70;2.05;;;;;;;10.86;71.33;100317.96;1763374;79;26334;-61
2022/05/29 06:09:45;;;;;;;5.62;1.72;;;;;;;10.91;71.18;100330.20;1730224;81;98813;-61
2022/05/29 06:12:12;;;;;;;7.60;2.22;;;;;;;10.92;70.96;100316.31;1764164;79;25756;-61
2022/05/29 06:14:39;;;;;;;9.78;3.08;;;;;;;10.94;70.94;100320.66;1756946;79;98740;-60
2022/05/29 06:17:07;;;;;;;8.83;2.20;;;;;;;11.00;70.86;100329.73;1762436;79;27189;-60
2022/05/29 06:19:33;;;;;;;7.00;2.02;;;;;;;11.09;70.86;100327.54;1705655;82;99211;-61
2022/05/29 06:22:01;;;;;;;8.43;2.35;;;;;;;11.23;70.84;100326.36;1765669;79;26203;-61
2022/05/29 06:24:29;;;;;;;7.47;2.10;;;;;;;11.28;70.69;100326.52;1763134;79;26328;-61
2022/05/29 06:26:58;;;;;;;15.40;2.22;;;;;;;11.30;70.47;100318.39;1759910;79;99160;-60
2022/05/29 06:29:25;;;;;;;8.10;1.92;;;;;;;11.33;70.43;100330.31;1766580;79;26214;-60
2022/05/29 06:31:57;;;;;;;11.55;2.20;;;;;;;11.38;70.38;100328.27;1759207;79;99369;-60
2022/05/29 06:34:23;;;;;;;4.45;2.05;;;;;;;11.45;70.18;100327.47;1763366;79;26243;-61
2022/05/29 06:36:49;;;;;;;6.97;1.75;;;;;;;11.53;70.09;100331.97;1770469;79;25827;-61
2022/05/29 06:39:16;;;;;;;7.58;2.20;;;;;;;11.65;70.03;100325.95;1760770;79;98684;-61
2022/05/29 06:41:44;;;;;;;8.63;2.37;;;;;;;11.77;69.81;100332.05;1757186;79;25821;-61
2022/05/29 06:44:10;;;;;;;7.95;2.00;;;;;;;11.86;69.76;100334.24;1768303;78;98672;-61
2022/05/29 06:46:35;;;;;;;8.73;1.90;;;;;;;12.00;69.60;100327.66;1766825;80;25851;-60
2022/05/29 06:49:07;;;;;;;6.20;1.77;;;;;;;12.09;69.36;100328.11;1764886;79;25787;-61
2022/05/29 06:51:35;;;;;;;7.87;2.12;;;;;;;12.15;69.17;100330.45;1758130;78;98810;-60
2022/05/29 06:54:02;;;;;;;8.10;1.55;;;;;;;12.21;69.12;100336.36;1763183;78;25780;-61
2022/05/29 06:56:28;;;;;;;8.30;2.87;;;;;;;12.30;68.95;100337.67;1769266;80;98807;-60
2022/05/29 06:58:55;;;;;;;7.62;2.22;;;;;;;12.37;68.39;100338.20;1770634;78;26453;-64
2022/05/29 07:07:01;;;;;;;9.35;1.47;;;;;;;12.53;68.02;100334.58;1773032;78;26307;-60
2022/05/29 07:09:39;;;;;;;9.23;1.92;;;;;;;12.58;67.63;100331.14;1766507;78;98572;-61
2022/05/29 07:12:20;;;;;;;10.78;2.17;;;;;;;12.58;67.42;100332.49;1770143;78;26191;-60
2022/05/29 07:15:02;;;;;;;8.53;1.87;;;;;;;12.54;66.83;100334.96;1770530;78;98976;-61
2022/05/29 07:17:32;;;;;;;6.78;1.95;;;;;;;12.49;66.97;100334.35;1775786;78;26914;-61
2022/05/29 07:19:58;;;;;;;7.62;1.27;;;;;;;12.52;66.93;100331.49;1769787;78;98942;-59
2022/05/29 07:22:29;;;;;;;5.55;1.90;;;;;;;12.58;66.66;100337.00;1768914;78;25785;-59
2022/05/29 07:24:55;;;;;;;13.58;2.15;;;;;;;12.52;66.44;100337.34;1769757;78;26480;-59
2022/05/29 07:27:22;;;;;;;4.80;1.70;;;;;;;12.41;66.21;100335.73;1770485;78;98901;-61
2022/05/29 07:29:48;;;;;;;3.02;1.40;;;;;;;12.44;65.97;100337.77;1772311;79;25725;-60
2022/05/29 07:32:16;;;;;;;3.37;1.17;;;;;;;12.46;66.02;100339.03;1767998;79;98642;-61
2022/05/29 07:34:44;;;;;;;8.38;1.55;;;;;;;12.55;65.87;100335.35;1775782;78;25744;-60
2022/05/29 07:37:41;;;;;;;6.28;1.30;;;;;;;12.64;65.63;100336.18;1767949;79;25956;-60
2022/05/29 07:40:11;;;;;;;8.50;2.20;;;;;;;12.68;65.48;100332.84;1768996;78;25907;-60
2022/05/29 07:45:23;;;;;;;5.20;1.25;;;;;;;12.64;65.25;100344.25;1752597;79;98750;-60
2022/05/29 07:47:50;;;;;;;5.15;1.77;;;;;;;12.64;64.59;100338.87;1719505;81;25753;-61
2022/05/29 07:50:23;;;;;;;7.00;2.00;;;;;;;12.72;64.00;100332.19;1748550;80;98895;-60
2022/05/29 07:52:51;;;;;;;8.33;2.75;;;;;;;12.80;64.40;100335.30;1754346;79;25771;-60
2022/05/29 07:55:18;;;;;;;7.15;1.72;;;;;;;12.90;64.20;100339.20;1747692;79;25688;-61
2022/05/29 07:57:44;;;;;;;6.50;1.80;;;;;;;12.92;63.94;100348.05;1752099;80;98526;-60
2022/05/29 08:00:16;;;;;;;7.97;1.98;;;;;;;12.95;63.87;100335.28;1755858;80;25807;-61
2022/05/29 08:02:42;;;;;;;5.50;1.65;;;;;;;13.02;64.00;100339.80;1746520;80;98714;-61
2022/05/29 08:05:12;;;;;;;6.62;1.85;;;;;;;13.18;63.87;100329.91;1755283;80;26304;-61
2022/05/29 08:07:39;;;;;;;8.13;1.92;;;;;;;13.28;63.61;100336.48;1748139;80;29623;-60
2022/05/29 08:10:08;;;;;;;7.12;1.90;;;;;;;13.40;63.61;100338.05;1748237;80;98451;-60
2022/05/29 08:12:34;;;;;;;12.90;2.10;;;;;;;13.42;63.20;100338.83;1746039;80;25861;-61
2022/05/29 08:15:02;;;;;;;6.47;1.90;;;;;;;13.31;63.06;100343.02;1744754;80;98932;-61
2022/05/29 08:17:30;;;;;;;10.35;2.30;;;;;;;13.24;63.00;100340.78;1752734;80;25845;-62
2022/05/29 08:19:56;;;;;;;5.67;1.80;;;;;;;13.24;62.94;100351.08;1741523;80;99063;-61
2022/05/29 08:22:22;;;;;;;8.53;1.57;;;;;;;13.33;62.81;100355.91;1718390;81;25854;-61
2022/05/29 08:30:41;;;;;;;;;;;;;;;13.47;62.06;100355.57;1749689;80;25796;-60
2022/05/29 08:33:14;;;;;;;2.77;1.55;;;;;;;13.47;62.17;100352.87;1744437;80;84473;-61
2022/05/29 08:35:44;;;;;;;5.67;1.47;;;;;;;13.58;62.16;100355.80;1747596;80;26403;-60
2022/05/29 08:38:12;;;;;;;6.65;2.10;;;;;;;13.76;62.12;100351.98;1738946;80;98889;-60
2022/05/29 08:40:43;;;;;;;6.10;2.00;;;;;;;13.92;61.93;100354.60;1745517;80;26523;-60
2022/05/29 08:43:12;;;;;;;;;;;;;;;14.02;61.87;100349.52;1774819;78;25924;-60
2022/05/29 08:45:39;;;;;;;4.80;1.85;;;;;;;14.16;61.77;100359.81;1790831;78;84857;-60
2022/05/29 08:48:08;;;;;;;4.33;1.37;;;;;;;14.24;61.38;100356.16;1779153;78;25712;-60
2022/05/29 08:50:47;;;;;;;5.33;1.80;;;;;;;14.37;60.92;100357.59;1780594;79;98959;-61
2022/05/29 08:53:36;;;;;;;4.83;1.70;;;;;;;14.44;61.22;100351.36;1781834;78;25800;-62
2022/05/29 08:56:13;;;;;;;6.25;1.47;;;;;;;14.55;61.21;100351.06;1759792;78;98870;-60
2022/05/29 08:59:12;;;;;;;8.03;1.92;;;;;;;14.66;60.52;100346.32;1752626;80;26667;-61
2022/05/29 09:02:00;;;;;;;5.90;1.42;;;;;;;14.85;60.85;100349.55;1754380;79;26638;-60
2022/05/29 09:04:33;;;;;;;7.10;1.57;;;;;;;15.03;60.28;100343.42;1745943;79;98542;-59
2022/05/29 09:07:05;;;;;;;5.12;1.65;;;;;;;15.03;59.93;100354.22;1757703;79;26416;-60
2022/05/29 09:09:42;;;;;;;6.70;1.57;;;;;;;15.06;59.58;100356.71;1734886;81;98762;-60
2022/05/29 09:12:33;;;;;;;8.15;1.75;;;;;;;14.97;59.19;100353.75;1751093;79;28300;-60
2022/05/29 09:15:02;;;;;;;;;;;;;;;14.86;59.30;100349.06;1783276;78;98732;-61
2022/05/29 09:17:39;;;;;;;5.15;1.87;;;;;;;14.98;59.14;100348.73;1787571;78;25702;-59
2022/05/29 09:20:38;;;;;;;7.70;2.20;;;;;;;15.04;59.36;100346.50;1781753;78;26452;-59
2022/05/29 09:23:07;;;;;;;4.47;1.10;;;;;;;15.03;58.74;100354.22;1777394;78;25763;-60
2022/05/29 09:25:44;;;;;;;4.12;1.30;;;;;;;14.78;58.54;100353.61;1783492;78;28312;-61
2022/05/29 09:28:38;;;;;;;4.25;1.52;;;;;;;14.54;58.39;100360.59;1786651;78;98751;-59
2022/05/29 09:31:15;;;;;;;6.20;1.27;;;;;;;14.30;58.39;100350.38;1769757;79;25849;-60
2022/05/29 09:33:42;;;;;;;4.78;1.55;;;;;;;14.13;58.45;100362.70;1785301;78;98805;-59
2022/05/29 09:36:41;;;;;;;7.12;1.55;;;;;;;13.92;58.12;100363.55;1781494;78;26402;-61
2022/05/29 09:39:33;;;;;;;4.60;1.60;;;;;;;13.76;58.28;100370.84;1716106;81;98830;-61
2022/05/29 09:42:25;;;;;;;5.70;1.55;;;;;;;13.60;57.89;100363.30;1771758;78;25708;-59
2022/05/29 09:45:11;;;;;;;7.72;1.80;;;;;;;13.44;58.22;100362.48;1746683;79;98910;-59
2022/05/29 09:50:40;;;;;;;8.20;2.12;;;;;;;13.46;58.48;100360.57;1739846;80;25879;-59
2022/05/29 09:53:20;;;;;;;5.80;1.82;;;;;;;13.44;58.48;100366.52;1746823;80;98661;-59
2022/05/29 09:55:55;;;;;;;4.40;1.27;;;;;;;13.43;58.54;100360.75;1752060;80;26547;-61
2022/05/29 09:58:27;;;;;;;7.70;1.72;;;;;;;13.41;58.54;100358.63;1746774;80;98619;-60
2022/05/29 10:01:02;;;;;;;6.30;1.90;;;;;;;13.39;58.58;100361.89;1749100;80;25800;-59
2022/05/29 10:03:39;;;;;;;7.45;2.37;;;;;;;13.43;58.72;100365.66;1748171;80;98756;-59
2022/05/29 10:06:42;;;;;;;7.53;2.08;;;;;;;13.44;58.67;100370.56;1745453;80;27439;-59
2022/05/29 10:09:21;;;;;;;6.60;1.87;;;;;;;13.44;58.75;100362.48;1748768;80;98971;-59
2022/05/29 10:11:56;;;;;;;8.15;2.60;;;;;;;13.48;58.70;100369.42;1744100;80;25713;-59
2022/05/29 10:14:41;;;;;;;6.22;1.87;;;;;;;13.50;58.59;100367.50;1751246;80;26706;-59
2022/05/29 10:17:32;;;;;;;6.28;1.82;;;;;;;13.50;58.77;100372.41;1721575;81;98594;-61
2022/05/29 10:19:58;;;;;;;4.58;1.72;;;;;;;13.55;58.66;100373.00;1715459;81;27411;-59
2022/05/29 10:22:39;;;;;;;8.28;2.25;;;;;;;13.55;58.65;100368.96;1710216;81;98837;-59
2022/05/29 10:25:20;;;;;;;5.85;2.35;;;;;;;13.62;58.71;100367.64;1749421;80;34962;-60
2022/05/29 10:27:49;;;;;;;;;;;;;;;13.74;58.69;100368.72;1735110;81;98924;-59
2022/05/29 10:30:50;;;;;;;6.62;2.12;;;;;;;13.85;58.74;100370.28;1746256;80;25675;-59
2022/05/29 10:33:27;;;;;;;11.27;3.03;;;;;;;13.95;58.72;100363.36;1720049;81;99182;-59
2022/05/29 10:36:17;;;;;;;7.62;1.60;;;;;;;14.07;58.54;100366.27;1741531;80;25931;-59
2022/05/29 10:38:47;;;;;;;4.28;1.70;;;;;;;14.16;58.46;100362.52;1749085;80;26070;-59
2022/05/29 10:41:19;;;;;;;5.78;1.92;;;;;;;14.29;58.49;100355.87;1756228;80;98413;-59
2022/05/29 10:43:51;;;;;;;7.55;1.77;;;;;;;14.50;58.53;100349.63;1747126;79;25837;-59
2022/05/29 10:46:25;;;;;;;5.12;1.60;;;;;;;14.57;58.30;100352.31;1749768;79;99270;-59
2022/05/29 10:49:18;;;;;;;8.90;1.70;;;;;;;14.64;57.54;100359.52;1744152;80;26373;-59
2022/05/29 10:52:27;;;;;;;6.92;1.70;;;;;;;14.57;57.63;100352.31;1742301;80;98924;-59
2022/05/29 10:55:41;;;;;;;4.10;1.40;;;;;;;14.78;57.75;100348.70;1754884;79;26710;-60
2022/05/29 10:58:15;;;;;;;7.60;1.30;;;;;;;14.95;57.30;100349.81;1747071;80;99301;-60
2022/05/29 11:00:55;;;;;;;6.87;1.12;;;;;;;14.91;56.90;100349.14;1747261;79;29497;-60
2022/05/29 11:03:44;;;;;;;4.70;1.55;;;;;;;14.93;56.77;100351.74;1741142;80;99369;-58
2022/05/29 11:07:01;;;;;;;4.47;1.07;;;;;;;14.92;56.15;100341.91;1750942;80;25777;-60
2022/05/29 11:09:50;;;;;;;6.58;1.72;;;;;;;14.84;56.33;100344.25;1744112;80;99695;-59
2022/05/29 11:12:38;;;;;;;4.20;1.50;;;;;;;14.88;56.09;100346.65;1734705;80;25974;-60
2022/05/29 11:15:25;;;;;;;4.75;1.62;;;;;;;14.94;56.00;100345.37;1747112;80;99339;-59
2022/05/29 11:18:13;;;;;;;5.08;1.40;;;;;;;14.92;55.42;100341.91;1748992;80;25747;-59
2022/05/29 11:21:04;;;;;;;6.10;1.72;;;;;;;14.81;54.83;100339.92;1751603;80;25348;-59
2022/05/29 11:24:03;;;;;;;4.40;1.72;;;;;;;14.71;54.83;100338.80;1752549;79;98799;-59
2022/05/29 11:26:47;;;;;;;4.25;1.30;;;;;;;14.78;54.56;100333.86;1757030;79;25776;-58
2022/05/29 11:29:40;;;;;;;6.58;1.87;;;;;;;14.83;54.92;100337.98;1744754;79;98769;-59
2022/05/29 11:32:36;;;;;;;3.67;1.32;;;;;;;14.86;54.63;100326.99;1749229;79;26431;-60
2022/05/29 11:35:28;;;;;;;9.05;1.72;;;;;;;14.97;54.63;100321.38;1745859;79;98760;-59
2022/05/29 11:38:12;;;;;;;3.42;1.40;;;;;;;15.06;54.60;100328.37;1753093;79;25743;-60
2022/05/29 11:40:43;;;;;;;7.47;2.58;;;;;;;15.10;54.52;100324.50;1753704;80;98717;-59
2022/05/29 11:43:38;;;;;;;5.85;1.60;;;;;;;15.04;54.00;100327.61;1751192;79;28515;-60
2022/05/29 11:52:01;;;;;;;4.28;1.55;;;;;;;14.81;54.16;100330.96;1753138;79;98876;-59
2022/05/29 11:54:56;;;;;;;5.87;1.55;;;;;;;14.83;54.25;100328.55;1742171;79;25876;-59
2022/05/29 11:57:31;;;;;;;6.20;1.50;;;;;;;14.85;54.29;100329.31;1747447;79;98913;-59
2022/05/29 12:00:13;;;;;;;4.15;1.57;;;;;;;14.85;54.12;100338.75;1755248;79;25933;-59
2022/05/29 12:03:23;;;;;;;5.45;1.45;;;;;;;14.77;54.25;100335.70;1750677;79;25786;-59
2022/05/29 12:06:09;;;;;;;5.92;1.30;;;;;;;14.77;54.39;100338.87;1689995;81;98512;-60
2022/05/29 12:09:03;;;;;;;5.72;1.10;;;;;;;14.68;54.11;100342.17;1748643;79;25665;-60
2022/05/29 12:11:59;;;;;;;5.25;1.62;;;;;;;14.54;54.18;100347.98;1745368;79;98691;-61
2022/05/29 12:14:42;;;;;;;7.65;1.82;;;;;;;14.47;54.27;100348.47;1755968;79;25846;-60
2022/05/29 12:17:31;;;;;;;6.55;1.50;;;;;;;14.45;54.37;100345.01;1750135;79;98762;-59
2022/05/29 12:20:11;;;;;;;9.95;1.82;;;;;;;14.42;54.46;100339.33;1735188;79;25906;-59
2022/05/29 12:22:47;;;;;;;;;;;;;;;14.34;54.28;100335.36;1755109;79;98627;-59
2022/05/29 12:25:40;;;;;;;5.22;0.90;;;;;;;14.32;54.23;100332.75;1751219;79;27913;-59
2022/05/29 12:28:18;;;;;;;8.68;1.45;;;;;;;14.36;54.41;100328.91;1751624;79;98826;-60
2022/05/29 12:30:49;;;;;;;4.15;1.20;;;;;;;14.48;54.35;100338.94;1750711;79;26138;-59
2022/05/29 12:33:20;;;;;;;4.40;1.60;;;;;;;14.40;53.99;100347.96;1753219;79;26362;-59
2022/05/29 12:36:39;;;;;;;3.83;1.10;;;;;;;14.28;53.84;100345.56;1751053;79;98785;-59
2022/05/29 12:39:25;;;;;;;2.87;1.32;;;;;;;14.26;54.00;100341.23;1750778;79;28099;-60
2022/05/29 12:42:18;;;;;;;2.70;1.00;;;;;;;14.23;53.87;100337.38;1746926;79;98421;-60